Terminal Aerodrome Forecast
Issued by NWS

Home | Current Version | Previous Version | Text Only | Print | Product List | Glossary On
Versions: 1 2 3 4 5 6 7 8 9 10 11 12 13 14 15 16 17 18 19 20 21 22 23 24 25 26
324
FTUS42 KCAE 062339
TAFOGB
TAF
KOGB 062339Z 0700/0724 02010KT P6SM VCSH OVC045
      TEMPO 0704/0708 6SM -RA
     FM070800 02010KT 6SM -RASN OVC025
     FM071500 36012G20KT P6SM BKN035
     FM071800 34014G21KT P6SM OVC050
     FM072300 32009KT P6SM SKC=

USA.gov is the U.S. government's official web portal to all federal, state and local government web resources and services.